Time;durP1;ratioP1;P1;durP2;ratioP2;P2;SDS_P1;SDS_P2;PMS_P1;PMS_P2;Temp;Humidity;BMP_temperature;BMP_pressure;BME280_temperature;BME280_humidity;BME280_pressure;Samples;Min_cycle;Max_cycle;Signal;HPM_P1;HPM_P2
2023/11/17 00:02:16;;;;;;;14.80;11.02;;;;;;;;;;5000096;28;20040;-91
2023/11/17 00:04:42;;;;;;;15.85;11.60;;;;;;;;;;5000500;28;20034;-91
2023/11/17 00:07:07;;;;;;;17.80;11.32;;;;;;;;;;5000659;28;20537;-92
2023/11/17 00:09:33;;;;;;;15.15;11.82;;;;;;;;;;5000581;28;20018;-91
2023/11/17 00:11:59;;;;;;;16.00;10.95;;;;;;;;;;5000229;28;20025;-91
2023/11/17 00:14:24;;;;;;;17.70;12.95;;;;;;;;;;5000176;28;20048;-91
2023/11/17 00:16:49;;;;;;;20.67;13.73;;;;;;;;;;5000901;28;20113;-92
2023/11/17 00:19:15;;;;;;;20.10;13.13;;;;;;;;;;4999874;28;20091;-92
2023/11/17 00:21:42;;;;;;;20.50;13.68;;;;;;;;;;5000296;28;20041;-92
2023/11/17 00:24:09;;;;;;;18.52;12.85;;;;;;;;;;5017032;28;20029;-91
2023/11/17 00:26:35;;;;;;;29.63;19.33;;;;;;;;;;5016862;28;20033;-92
2023/11/17 00:29:01;;;;;;;28.85;18.30;;;;;;;;;;5000545;28;20013;-92
2023/11/17 00:31:29;;;;;;;17.73;10.98;;;;;;;;;;4999885;28;20040;-93
2023/11/17 00:33:54;;;;;;;15.10;10.40;;;;;;;;;;5000500;28;20038;-91
2023/11/17 00:36:20;;;;;;;53.22;33.47;;;;;;;;;;5000357;28;20619;-91
2023/11/17 00:38:48;;;;;;;23.60;16.77;;;;;;;;;;5016724;28;20095;-91
2023/11/17 00:41:13;;;;;;;15.07;10.75;;;;;;;;;;4999817;28;20037;-91
2023/11/17 00:43:39;;;;;;;17.25;12.95;;;;;;;;;;4999994;28;20025;-92
2023/11/17 00:46:05;;;;;;;13.52;11.45;;;;;;;;;;5000171;28;20037;-93
2023/11/17 00:48:32;;;;;;;15.10;10.45;;;;;;;;;;5000039;28;20022;-92
2023/11/17 00:50:59;;;;;;;29.67;20.17;;;;;;;;;;5000407;28;20033;-90
2023/11/17 00:53:29;;;;;;;28.92;19.10;;;;;;;;;;4999533;28;20056;-91
2023/11/17 00:56:04;;;;;;;35.92;24.00;;;;;;;;;;5000279;28;20026;-90
2023/11/17 00:58:39;;;;;;;33.53;21.25;;;;;;;;;;5000699;28;20029;-92
2023/11/17 01:01:18;;;;;;;45.20;26.27;;;;;;;;;;5018320;28;20044;-92
2023/11/17 01:03:45;;;;;;;35.00;24.52;;;;;;;;;;5016639;28;20053;-91
2023/11/17 01:06:23;;;;;;;42.03;25.77;;;;;;;;;;5017971;28;20061;-93
2023/11/17 01:08:54;;;;;;;39.88;25.20;;;;;;;;;;5000823;28;20200;-92
2023/11/17 01:11:19;;;;;;;41.45;24.58;;;;;;;;;;5000162;28;20053;-92
2023/11/17 01:13:45;;;;;;;42.53;27.55;;;;;;;;;;5000482;28;20071;-92
2023/11/17 01:16:10;;;;;;;47.50;30.42;;;;;;;;;;4999732;28;20076;-91
2023/11/17 01:18:36;;;;;;;35.03;22.98;;;;;;;;;;5000204;28;20030;-92
2023/11/17 01:21:01;;;;;;;122.90;62.92;;;;;;;;;;4999483;28;20079;-91
2023/11/17 01:23:28;;;;;;;22.50;14.85;;;;;;;;;;5000278;28;20116;-92
2023/11/17 01:25:54;;;;;;;37.22;25.50;;;;;;;;;;4999845;28;20030;-91
2023/11/17 01:28:20;;;;;;;19.48;15.27;;;;;;;;;;4999841;28;20033;-92
2023/11/17 01:31:22;;;;;;;17.75;12.45;;;;;;;;;;5017585;28;20055;-93
2023/11/17 01:36:39;;;;;;;13.93;11.05;;;;;;;;;;5015785;28;20488;-92
2023/11/17 01:39:09;;;;;;;14.88;11.38;;;;;;;;;;4999956;28;20049;-91
2023/11/17 01:41:34;;;;;;;13.88;10.65;;;;;;;;;;5001248;28;20029;-91
2023/11/17 01:44:00;;;;;;;17.73;12.55;;;;;;;;;;5003255;28;20422;-93
2023/11/17 01:46:25;;;;;;;14.98;12.30;;;;;;;;;;5003245;28;20091;-91
2023/11/17 01:48:51;;;;;;;13.80;10.05;;;;;;;;;;5003135;28;20526;-92
2023/11/17 01:51:20;;;;;;;14.85;11.23;;;;;;;;;;5019433;28;20450;-92
2023/11/17 01:53:48;;;;;;;17.48;12.05;;;;;;;;;;5003637;28;20057;-92
2023/11/17 01:56:17;;;;;;;15.50;11.00;;;;;;;;;;5020018;28;20421;-92
2023/11/17 01:58:44;;;;;;;13.45;10.48;;;;;;;;;;5003112;28;20661;-92
2023/11/17 02:01:09;;;;;;;15.70;10.77;;;;;;;;;;5003284;28;20033;-92
2023/11/17 02:03:40;;;;;;;14.30;10.10;;;;;;;;;;5020282;28;20040;-93
2023/11/17 02:06:26;;;;;;;12.55;10.13;;;;;;;;;;5002834;28;20029;-91
2023/11/17 02:09:01;;;;;;;11.68;9.80;;;;;;;;;;5019345;28;20030;-93
2023/11/17 02:11:34;;;;;;;12.55;9.68;;;;;;;;;;5019213;28;20048;-91
2023/11/17 02:14:05;;;;;;;13.38;10.27;;;;;;;;;;5003245;28;20545;-91
2023/11/17 02:16:33;;;;;;;;;;;;;;;;;;5003195;28;20506;-92
2023/11/17 02:19:04;;;;;;;12.98;11.30;;;;;;;;;;5052097;28;19909;-92
2023/11/17 02:21:36;;;;;;;16.45;12.05;;;;;;;;;;5019271;28;20480;-91
2023/11/17 02:24:06;;;;;;;19.13;13.87;;;;;;;;;;5002632;28;20025;-93
2023/11/17 02:26:37;;;;;;;19.67;13.45;;;;;;;;;;5019299;28;20029;-92
2023/11/17 02:29:27;;;;;;;18.23;12.82;;;;;;;;;;5019098;28;20025;-93
2023/11/17 02:31:54;;;;;;;17.42;14.00;;;;;;;;;;4990138;28;20475;-91
2023/11/17 02:34:26;;;;;;;18.40;13.18;;;;;;;;;;5002858;28;20053;-91
2023/11/17 02:37:05;;;;;;;16.75;12.30;;;;;;;;;;5003606;28;20033;-93
2023/11/17 02:39:36;;;;;;;17.02;11.73;;;;;;;;;;5002396;28;20511;-92
2023/11/17 02:42:10;;;;;;;17.15;11.95;;;;;;;;;;5018848;28;20021;-91
2023/11/17 02:44:37;;;;;;;16.42;12.95;;;;;;;;;;5018860;28;20041;-93
2023/11/17 02:47:03;;;;;;;17.60;13.15;;;;;;;;;;5002377;28;20025;-92
2023/11/17 02:49:34;;;;;;;20.58;14.90;;;;;;;;;;5002530;28;20391;-92
2023/11/17 02:52:08;;;;;;;21.88;14.27;;;;;;;;;;5002454;28;20022;-93
2023/11/17 02:54:34;;;;;;;17.30;13.35;;;;;;;;;;5018287;28;20041;-93
2023/11/17 02:57:03;;;;;;;18.02;13.70;;;;;;;;;;5002350;28;20018;-93
2023/11/17 02:59:35;;;;;;;17.48;13.02;;;;;;;;;;5018435;28;20029;-93
2023/11/17 03:02:15;;;;;;;17.88;13.25;;;;;;;;;;5002182;28;20026;-93
2023/11/17 03:04:59;;;;;;;17.20;12.77;;;;;;;;;;5003195;28;20127;-91
2023/11/17 03:07:24;;;;;;;17.45;13.02;;;;;;;;;;5001881;28;20022;-92
2023/11/17 03:09:53;;;;;;;17.60;12.52;;;;;;;;;;5001803;28;20029;-91
2023/11/17 03:12:19;;;;;;;16.75;12.20;;;;;;;;;;5001860;28;20454;-93
2023/11/17 03:14:44;;;;;;;18.90;12.57;;;;;;;;;;5001760;28;20054;-93
2023/11/17 03:17:10;;;;;;;16.23;11.77;;;;;;;;;;5017972;28;20219;-94
2023/11/17 03:19:40;;;;;;;15.60;11.70;;;;;;;;;;5001985;28;20018;-93
2023/11/17 03:22:05;;;;;;;19.20;12.27;;;;;;;;;;5001929;28;20029;-93
2023/11/17 03:24:34;;;;;;;15.52;11.25;;;;;;;;;;5001772;28;20033;-91
2023/11/17 03:26:59;;;;;;;16.63;12.27;;;;;;;;;;5001574;28;20025;-91
2023/11/17 03:29:31;;;;;;;18.13;11.70;;;;;;;;;;5001208;28;20026;-92
2023/11/17 03:31:57;;;;;;;19.48;12.55;;;;;;;;;;5001747;28;20025;-93
2023/11/17 03:34:31;;;;;;;16.38;12.32;;;;;;;;;;5001244;28;20032;-92
2023/11/17 03:36:57;;;;;;;17.05;12.38;;;;;;;;;;5001163;28;20029;-92
2023/11/17 03:39:23;;;;;;;14.60;12.30;;;;;;;;;;5017427;28;20075;-91
2023/11/17 03:41:54;;;;;;;15.07;12.20;;;;;;;;;;5001601;28;20038;-91
2023/11/17 03:44:27;;;;;;;15.85;11.82;;;;;;;;;;5001488;28;20033;-92
2023/11/17 03:46:58;;;;;;;17.55;11.48;;;;;;;;;;5017837;28;20087;-93
2023/11/17 03:49:32;;;;;;;14.75;11.13;;;;;;;;;;5017773;28;20032;-92
2023/11/17 03:51:58;;;;;;;11.55;9.85;;;;;;;;;;5001051;28;20033;-92
2023/11/17 03:54:26;;;;;;;15.07;10.27;;;;;;;;;;5001213;28;20030;-92
2023/11/17 03:56:54;;;;;;;13.80;10.55;;;;;;;;;;5001261;28;20037;-94
2023/11/17 03:59:21;;;;;;;11.98;9.88;;;;;;;;;;5000628;28;20547;-92
2023/11/17 04:01:50;;;;;;;10.90;8.88;;;;;;;;;;5014315;28;20033;-91
2023/11/17 04:04:17;;;;;;;10.75;8.98;;;;;;;;;;5000050;28;20021;-93
2023/11/17 04:06:50;;;;;;;10.95;8.82;;;;;;;;;;5000797;28;20113;-92
2023/11/17 04:09:39;;;;;;;10.55;8.40;;;;;;;;;;4995331;28;20025;-93
2023/11/17 04:12:33;;;;;;;;;;;;;;;;;;;;;
2023/11/17 04:15:45;;;;;;;8.35;7.40;;;;;;;;;;5020129;28;20471;-94
2023/11/17 04:18:32;;;;;;;;;;;;;;;;;;;;;
2023/11/17 04:21:26;;;;;;;9.75;7.43;;;;;;;;;;4992702;28;20049;-92
2023/11/17 04:23:57;;;;;;;8.57;7.65;;;;;;;;;;5012863;28;20483;-92
2023/11/17 04:26:30;;;;;;;7.82;7.03;;;;;;;;;;5024368;28;20534;-92
2023/11/17 04:28:55;;;;;;;7.53;6.82;;;;;;;;;;5025947;28;20104;-93
2023/11/17 04:31:23;;;;;;;7.78;6.97;;;;;;;;;;5013613;28;20021;-92
2023/11/17 04:33:54;;;;;;;7.78;6.97;;;;;;;;;;5002190;28;20037;-93
2023/11/17 04:36:26;;;;;;;9.10;7.10;;;;;;;;;;5001327;28;20032;-94
2023/11/17 04:39:11;;;;;;;7.38;6.68;;;;;;;;;;5000320;28;20041;-94
2023/11/17 04:41:44;;;;;;;8.47;7.53;;;;;;;;;;5015797;28;20033;-93
2023/11/17 04:44:10;;;;;;;7.60;6.60;;;;;;;;;;5000185;28;20044;-92
2023/11/17 04:46:35;;;;;;;7.45;6.47;;;;;;;;;;5000193;28;20029;-93
2023/11/17 04:49:00;;;;;;;6.95;6.35;;;;;;;;;;4999713;28;20032;-92
2023/11/17 04:51:30;;;;;;;7.63;6.93;;;;;;;;;;5016981;28;20527;-91
2023/11/17 04:53:56;;;;;;;8.90;8.00;;;;;;;;;;4999990;28;20103;-92
2023/11/17 04:56:21;;;;;;;14.43;12.93;;;;;;;;;;4999723;28;20029;-93
2023/11/17 04:58:47;;;;;;;19.38;15.30;;;;;;;;;;5000513;28;20025;-91
2023/11/17 05:01:14;;;;;;;12.35;11.07;;;;;;;;;;4999400;28;20399;-92
2023/11/17 05:03:41;;;;;;;8.45;7.65;;;;;;;;;;4998728;28;20025;-93
2023/11/17 05:06:06;;;;;;;7.15;6.50;;;;;;;;;;4998396;28;20026;-92
2023/11/17 05:08:33;;;;;;;6.22;5.63;;;;;;;;;;4997608;28;20345;-93
2023/11/17 05:17:30;;;;;;;8.50;7.70;;;;;;;;;;4933933;29;20053;-92
2023/11/17 05:19:56;;;;;;;8.85;8.02;;;;;;;;;;5018266;28;20038;-93
2023/11/17 05:22:23;;;;;;;6.60;6.00;;;;;;;;;;5003966;28;20029;-92
2023/11/17 05:24:48;;;;;;;6.57;6.07;;;;;;;;;;5003953;28;20044;-91
2023/11/17 05:27:14;;;;;;;5.80;5.28;;;;;;;;;;5019868;28;20033;-92
2023/11/17 05:29:40;;;;;;;5.55;5.05;;;;;;;;;;5004031;28;20060;-91
2023/11/17 05:32:05;;;;;;;5.40;4.90;;;;;;;;;;5003557;28;20036;-91
2023/11/17 05:34:33;;;;;;;5.45;4.90;;;;;;;;;;5020242;28;20035;-91
2023/11/17 05:36:59;;;;;;;8.27;5.10;;;;;;;;;;5003645;28;20546;-93
2023/11/17 05:39:26;;;;;;;5.85;4.70;;;;;;;;;;5004028;28;20040;-93
2023/11/17 05:42:37;;;;;;;5.07;4.68;;;;;;;;;;5003888;28;20041;-95
2023/11/17 05:45:24;;;;;;;5.10;4.60;;;;;;;;;;5016240;28;20048;-92
2023/11/17 05:47:49;;;;;;;4.93;4.53;;;;;;;;;;5003440;28;20116;-94
2023/11/17 05:50:45;;;;;;;4.60;4.30;;;;;;;;;;5004430;28;20087;-94
2023/11/17 05:53:11;;;;;;;4.85;4.45;;;;;;;;;;4995870;28;20149;-93
2023/11/17 05:55:39;;;;;;;4.93;4.53;;;;;;;;;;5019965;28;20053;-94
2023/11/17 05:58:09;;;;;;;4.95;4.53;;;;;;;;;;5003639;28;20032;-94
2023/11/17 06:00:41;;;;;;;5.15;4.70;;;;;;;;;;5019578;28;20037;-91
2023/11/17 06:03:12;;;;;;;4.47;4.10;;;;;;;;;;5003176;28;20040;-93
2023/11/17 06:05:40;;;;;;;5.03;4.53;;;;;;;;;;5003761;28;20059;-94
2023/11/17 06:08:11;;;;;;;4.80;4.40;;;;;;;;;;5003714;28;20024;-92
2023/11/17 06:10:52;;;;;;;6.70;5.47;;;;;;;;;;5003505;28;20056;-89
2023/11/17 06:13:20;;;;;;;6.97;5.50;;;;;;;;;;5002294;28;20030;-91
2023/11/17 06:15:46;;;;;;;5.28;4.15;;;;;;;;;;5019210;28;20040;-94
2023/11/17 06:18:12;;;;;;;6.05;5.32;;;;;;;;;;4986980;28;20031;-92
2023/11/17 06:20:37;;;;;;;5.97;5.38;;;;;;;;;;5035541;28;20029;-92
2023/11/17 06:23:03;;;;;;;36.03;20.33;;;;;;;;;;5002621;28;20025;-92
2023/11/17 06:25:31;;;;;;;12.57;9.07;;;;;;;;;;5002585;28;20026;-92
2023/11/17 06:27:57;;;;;;;28.42;12.60;;;;;;;;;;5002003;28;20423;-94
2023/11/17 06:30:23;;;;;;;68.95;27.55;;;;;;;;;;5002553;28;20029;-92
2023/11/17 06:32:48;;;;;;;52.25;23.60;;;;;;;;;;5002913;28;20567;-94
2023/11/17 06:35:15;;;;;;;70.82;33.42;;;;;;;;;;5002904;28;20025;-92
2023/11/17 06:37:43;;;;;;;46.88;24.63;;;;;;;;;;5018893;28;20061;-92
2023/11/17 06:40:10;;;;;;;35.15;19.33;;;;;;;;;;5035264;28;20045;-92
2023/11/17 06:42:39;;;;;;;48.33;33.28;;;;;;;;;;5034559;28;20179;-93
2023/11/17 06:45:04;;;;;;;59.92;45.70;;;;;;;;;;5035142;28;20111;-93
2023/11/17 06:47:30;;;;;;;89.50;69.25;;;;;;;;;;5034048;28;20080;-93
2023/11/17 06:49:57;;;;;;;53.88;39.03;;;;;;;;;;5002078;28;20104;-93
2023/11/17 06:52:24;;;;;;;34.05;20.15;;;;;;;;;;5002381;28;20057;-92
2023/11/17 06:54:49;;;;;;;131.35;60.85;;;;;;;;;;5002161;28;20022;-92
2023/11/17 06:57:15;;;;;;;82.45;39.95;;;;;;;;;;5018364;28;20032;-93
2023/11/17 06:59:40;;;;;;;56.50;27.98;;;;;;;;;;5001902;28;20029;-92
2023/11/17 07:02:07;;;;;;;102.90;41.53;;;;;;;;;;5018199;28;20446;-93
2023/11/17 07:04:32;;;;;;;22.73;11.82;;;;;;;;;;5002090;28;20025;-93
2023/11/17 07:06:59;;;;;;;8.15;5.50;;;;;;;;;;5001644;28;20033;-92
2023/11/17 07:09:30;;;;;;;6.65;3.75;;;;;;;;;;5001860;28;20091;-93
2023/11/17 07:11:59;;;;;;;3.00;2.80;;;;;;;;;;5002122;28;20028;-93
2023/11/17 07:14:25;;;;;;;3.07;2.87;;;;;;;;;;5001794;28;20068;-93
2023/11/17 07:16:51;;;;;;;3.78;3.47;;;;;;;;;;5001714;28;20033;-92
2023/11/17 07:19:17;;;;;;;3.75;3.45;;;;;;;;;;5001836;28;20025;-92
2023/11/17 07:21:45;;;;;;;5.18;4.70;;;;;;;;;;5001476;28;20464;-93
2023/11/17 07:24:11;;;;;;;6.10;4.72;;;;;;;;;;5001936;28;20025;-94
2023/11/17 07:26:37;;;;;;;4.93;4.22;;;;;;;;;;5001837;28;20068;-93
2023/11/17 07:29:03;;;;;;;6.30;5.70;;;;;;;;;;5001618;28;20029;-93
2023/11/17 07:31:37;;;;;;;8.63;7.28;;;;;;;;;;5001817;28;20105;-93
2023/11/17 07:34:05;;;;;;;10.75;9.68;;;;;;;;;;5001560;28;20057;-91
2023/11/17 07:36:33;;;;;;;12.00;8.45;;;;;;;;;;5018039;28;20052;-93
2023/11/17 07:39:01;;;;;;;12.02;7.70;;;;;;;;;;5012981;28;20137;-94
2023/11/17 07:41:28;;;;;;;13.13;8.23;;;;;;;;;;4997470;28;20026;-93
2023/11/17 07:43:54;;;;;;;13.80;7.25;;;;;;;;;;4997965;28;20034;-93
2023/11/17 07:46:22;;;;;;;13.10;7.85;;;;;;;;;;4997905;28;20103;-92
2023/11/17 07:48:50;;;;;;;19.15;8.73;;;;;;;;;;4997477;28;20026;-93
2023/11/17 07:51:16;;;;;;;13.60;7.20;;;;;;;;;;4998011;28;20030;-94
2023/11/17 07:53:47;;;;;;;27.60;10.00;;;;;;;;;;4982544;28;20061;-94
2023/11/17 07:56:12;;;;;;;14.80;8.48;;;;;;;;;;4997892;28;20034;-93
2023/11/17 07:58:38;;;;;;;10.10;7.43;;;;;;;;;;4997961;28;20034;-94
2023/11/17 08:01:09;;;;;;;14.05;7.03;;;;;;;;;;4997471;28;20029;-94
2023/11/17 08:03:37;;;;;;;12.23;6.80;;;;;;;;;;4997719;28;20124;-93
2023/11/17 08:06:03;;;;;;;10.07;6.20;;;;;;;;;;4997975;28;20033;-93
2023/11/17 08:08:29;;;;;;;8.90;5.50;;;;;;;;;;4997193;28;20025;-94
2023/11/17 08:10:55;;;;;;;4.95;4.20;;;;;;;;;;4999150;28;20057;-92
2023/11/17 08:13:28;;;;;;;9.60;5.10;;;;;;;;;;5013572;28;20084;-94
2023/11/17 08:15:54;;;;;;;14.93;8.52;;;;;;;;;;4997436;28;20030;-93
2023/11/17 08:18:20;;;;;;;11.82;6.70;;;;;;;;;;4997408;28;20030;-93
2023/11/17 08:20:47;;;;;;;14.85;11.10;;;;;;;;;;4997109;28;20033;-93
2023/11/17 08:23:14;;;;;;;16.42;9.68;;;;;;;;;;5013568;28;20364;-93
2023/11/17 08:25:40;;;;;;;8.98;5.30;;;;;;;;;;4997366;28;20026;-95
2023/11/17 08:28:08;;;;;;;9.15;5.30;;;;;;;;;;4997204;28;20468;-94
2023/11/17 08:30:33;;;;;;;12.45;5.57;;;;;;;;;;4996899;28;20126;-94
2023/11/17 08:32:59;;;;;;;6.15;4.47;;;;;;;;;;5013379;28;20088;-93
2023/11/17 08:35:25;;;;;;;5.75;4.90;;;;;;;;;;4996935;28;20029;-93
2023/11/17 08:37:55;;;;;;;6.18;4.40;;;;;;;;;;4996841;28;20580;-93
2023/11/17 08:40:21;;;;;;;5.50;4.40;;;;;;;;;;5013554;28;20030;-94
2023/11/17 08:42:47;;;;;;;4.22;3.67;;;;;;;;;;4997104;28;20490;-92
2023/11/17 08:45:14;;;;;;;6.55;4.40;;;;;;;;;;4997147;28;20447;-94
2023/11/17 08:47:41;;;;;;;3.30;3.03;;;;;;;;;;4997003;28;20021;-96
2023/11/17 08:50:08;;;;;;;3.92;3.53;;;;;;;;;;4997074;28;20121;-92
2023/11/17 08:52:43;;;;;;;4.05;3.72;;;;;;;;;;5003370;28;20022;-93
2023/11/17 08:55:13;;;;;;;8.75;6.32;;;;;;;;;;5004013;28;20022;-94
2023/11/17 08:57:41;;;;;;;12.93;8.23;;;;;;;;;;5003636;28;20072;-93
2023/11/17 09:00:30;;;;;;;10.05;6.97;;;;;;;;;;5003641;28;20018;-95
2023/11/17 09:02:53;;;;;;;13.93;7.65;;;;;;;;;;5019391;28;20034;-93
2023/11/17 09:05:22;;;;;;;6.20;4.70;;;;;;;;;;5003705;28;20029;-93
2023/11/17 09:07:55;;;;;;;4.53;4.13;;;;;;;;;;5003446;28;20038;-94
2023/11/17 09:10:26;;;;;;;6.72;5.25;;;;;;;;;;5019110;28;20041;-94
2023/11/17 09:12:53;;;;;;;8.32;6.75;;;;;;;;;;5002829;28;20188;-92
2023/11/17 09:15:23;;;;;;;7.35;5.95;;;;;;;;;;5003011;28;20022;-93
2023/11/17 09:17:52;;;;;;;13.63;8.82;;;;;;;;;;5002015;28;20048;-92
2023/11/17 09:20:23;;;;;;;11.80;8.15;;;;;;;;;;5003467;28;20033;-93
2023/11/17 09:22:49;;;;;;;8.38;6.75;;;;;;;;;;5003128;28;20030;-92
2023/11/17 09:25:16;;;;;;;9.30;7.15;;;;;;;;;;5002988;28;20096;-93
2023/11/17 09:27:46;;;;;;;6.20;5.45;;;;;;;;;;5002951;28;20030;-93
2023/11/17 09:30:14;;;;;;;3.67;3.38;;;;;;;;;;5003259;28;20042;-91
2023/11/17 09:32:49;;;;;;;6.10;4.63;;;;;;;;;;5003354;28;20061;-93
2023/11/17 09:35:16;;;;;;;7.38;5.03;;;;;;;;;;4986970;28;20037;-93
2023/11/17 09:37:45;;;;;;;8.10;6.03;;;;;;;;;;5002947;28;20068;-92
2023/11/17 09:40:21;;;;;;;4.15;3.75;;;;;;;;;;5004361;28;20022;-94
2023/11/17 09:42:51;;;;;;;3.97;3.67;;;;;;;;;;5003035;28;20603;-93
2023/11/17 09:45:26;;;;;;;5.30;4.00;;;;;;;;;;5002553;28;20097;-94
2023/11/17 09:47:57;;;;;;;6.43;5.22;;;;;;;;;;5003115;28;20029;-94
2023/11/17 09:50:26;;;;;;;8.95;7.13;;;;;;;;;;5003145;28;20022;-93
2023/11/17 09:52:55;;;;;;;15.25;11.95;;;;;;;;;;5003263;28;20030;-93
2023/11/17 09:55:28;;;;;;;8.43;7.63;;;;;;;;;;5003316;28;20022;-94
2023/11/17 09:58:06;;;;;;;6.82;6.13;;;;;;;;;;5003385;28;20129;-92
2023/11/17 10:00:36;;;;;;;5.93;4.80;;;;;;;;;;5002611;28;20500;-93
2023/11/17 10:03:03;;;;;;;4.97;4.40;;;;;;;;;;5000986;28;20034;-92
2023/11/17 10:05:35;;;;;;;5.53;4.95;;;;;;;;;;4999705;28;20128;-93
2023/11/17 10:08:04;;;;;;;5.45;4.95;;;;;;;;;;5000198;28;20164;-92
2023/11/17 10:10:36;;;;;;;6.25;4.15;;;;;;;;;;4999785;28;20034;-92
2023/11/17 10:13:01;;;;;;;5.53;5.00;;;;;;;;;;4999807;28;20045;-93
2023/11/17 10:15:33;;;;;;;9.77;6.95;;;;;;;;;;4999493;28;20396;-92
2023/11/17 10:18:06;;;;;;;6.30;5.70;;;;;;;;;;5000440;28;20092;-92
2023/11/17 10:20:41;;;;;;;8.40;7.53;;;;;;;;;;4999480;28;20030;-93
2023/11/17 10:23:07;;;;;;;7.35;6.65;;;;;;;;;;4984407;28;20030;-94
2023/11/17 10:25:32;;;;;;;6.55;5.07;;;;;;;;;;4998988;28;20025;-92
2023/11/17 10:28:02;;;;;;;6.32;5.57;;;;;;;;;;5000095;28;20025;-93
2023/11/17 10:30:30;;;;;;;7.90;6.75;;;;;;;;;;4999309;28;20026;-93
2023/11/17 10:33:02;;;;;;;8.18;6.00;;;;;;;;;;4999500;28;20034;-93
2023/11/17 10:35:34;;;;;;;5.30;4.50;;;;;;;;;;4999378;28;20456;-93
2023/11/17 10:38:04;;;;;;;6.80;5.88;;;;;;;;;;4999194;28;20042;-93
2023/11/17 10:40:35;;;;;;;5.38;4.53;;;;;;;;;;4999592;28;20022;-92
2023/11/17 10:43:07;;;;;;;4.95;4.47;;;;;;;;;;5015709;28;20125;-93
2023/11/17 10:45:33;;;;;;;6.03;5.40;;;;;;;;;;4999454;28;20156;-91
2023/11/17 10:47:59;;;;;;;5.95;5.40;;;;;;;;;;4999371;28;20030;-92
2023/11/17 10:50:28;;;;;;;6.15;5.18;;;;;;;;;;4998741;28;20030;-95
2023/11/17 10:52:54;;;;;;;9.20;6.50;;;;;;;;;;5015500;28;20115;-93
2023/11/17 10:55:37;;;;;;;10.60;6.97;;;;;;;;;;4999379;28;20108;-92
2023/11/17 10:58:03;;;;;;;14.57;8.68;;;;;;;;;;4998561;28;20034;-92
2023/11/17 11:00:33;;;;;;;13.55;8.80;;;;;;;;;;4998928;28;20022;-93
2023/11/17 11:03:10;;;;;;;18.77;13.50;;;;;;;;;;4999841;28;20088;-95
2023/11/17 11:05:38;;;;;;;15.93;10.20;;;;;;;;;;4998818;28;20080;-93
2023/11/17 11:08:13;;;;;;;13.48;9.95;;;;;;;;;;5015291;28;20034;-93
2023/11/17 11:10:47;;;;;;;10.95;8.60;;;;;;;;;;4999003;28;20064;-93
2023/11/17 11:13:14;;;;;;;11.13;8.23;;;;;;;;;;5015148;28;20041;-92
2023/11/17 11:15:39;;;;;;;13.55;9.65;;;;;;;;;;4997173;28;20064;-92
2023/11/17 11:18:12;;;;;;;10.93;8.60;;;;;;;;;;4997543;28;20033;-92
2023/11/17 11:20:41;;;;;;;11.77;8.18;;;;;;;;;;4997546;28;20029;-92
2023/11/17 11:23:07;;;;;;;14.27;9.90;;;;;;;;;;4998133;28;20080;-92
2023/11/17 11:25:35;;;;;;;11.20;7.70;;;;;;;;;;5014360;28;20052;-92
2023/11/17 11:28:03;;;;;;;12.80;9.70;;;;;;;;;;4998505;28;20026;-93
2023/11/17 11:30:32;;;;;;;10.03;7.97;;;;;;;;;;4998686;28;20475;-93
2023/11/17 11:33:00;;;;;;;7.80;6.00;;;;;;;;;;4999240;28;20034;-93
2023/11/17 11:35:27;;;;;;;12.43;8.57;;;;;;;;;;5011568;28;20069;-93
2023/11/17 11:37:55;;;;;;;9.75;6.15;;;;;;;;;;4994201;28;20519;-93
2023/11/17 11:40:23;;;;;;;8.93;7.05;;;;;;;;;;4994994;28;20126;-93
2023/11/17 11:42:49;;;;;;;14.60;9.55;;;;;;;;;;4994816;28;20121;-91
2023/11/17 11:45:25;;;;;;;15.35;9.45;;;;;;;;;;5010927;28;20450;-92
2023/11/17 11:47:52;;;;;;;11.25;8.23;;;;;;;;;;4994359;28;20022;-94
2023/11/17 11:50:24;;;;;;;11.77;8.55;;;;;;;;;;4994518;28;20428;-93
2023/11/17 11:53:05;;;;;;;11.45;7.78;;;;;;;;;;4994756;28;20126;-93
2023/11/17 11:55:33;;;;;;;9.60;6.55;;;;;;;;;;4994477;28;20077;-93
2023/11/17 11:58:03;;;;;;;10.30;7.60;;;;;;;;;;4994475;28;20030;-92
2023/11/17 12:00:34;;;;;;;8.90;6.65;;;;;;;;;;4994416;28;20182;-92
2023/11/17 12:03:03;;;;;;;13.10;7.57;;;;;;;;;;4994703;28;20503;-95
2023/11/17 12:05:33;;;;;;;9.43;7.53;;;;;;;;;;4994554;28;20027;-93
2023/11/17 12:08:23;;;;;;;7.18;6.47;;;;;;;;;;4993931;28;20514;-92
2023/11/17 12:11:16;;;;;;;8.10;6.68;;;;;;;;;;4994378;28;20035;-92
2023/11/17 12:13:43;;;;;;;8.23;6.57;;;;;;;;;;4987493;28;20137;-93
2023/11/17 12:16:19;;;;;;;9.23;6.55;;;;;;;;;;4993482;28;20019;-94
2023/11/17 12:19:07;;;;;;;8.20;6.90;;;;;;;;;;4993357;28;20030;-93
2023/11/17 12:21:42;;;;;;;;;;;;;;;;;;4994448;28;20088;-94
2023/11/17 12:24:12;;;;;;;7.78;5.97;;;;;;;;;;4994265;28;19956;-92
2023/11/17 12:26:40;;;;;;;8.35;7.13;;;;;;;;;;5009130;28;20026;-93
2023/11/17 12:29:15;;;;;;;10.48;7.55;;;;;;;;;;4994034;28;20045;-93
2023/11/17 12:31:49;;;;;;;9.00;7.70;;;;;;;;;;4994219;28;20042;-93
2023/11/17 12:34:22;;;;;;;7.10;6.20;;;;;;;;;;4994138;28;20112;-92
2023/11/17 12:36:56;;;;;;;8.13;6.30;;;;;;;;;;4993531;28;20064;-93
2023/11/17 12:39:34;;;;;;;8.95;6.90;;;;;;;;;;4996339;28;20037;-93
2023/11/17 12:42:02;;;;;;;11.25;8.52;;;;;;;;;;4996509;28;20507;-92
2023/11/17 12:44:35;;;;;;;10.68;8.23;;;;;;;;;;4996305;28;20057;-93
2023/11/17 12:47:11;;;;;;;11.98;9.25;;;;;;;;;;4996403;28;20034;-93
2023/11/17 12:49:51;;;;;;;10.68;7.80;;;;;;;;;;4996710;28;20022;-94
2023/11/17 12:52:17;;;;;;;9.05;7.47;;;;;;;;;;5013261;28;20026;-93
2023/11/17 12:55:01;;;;;;;6.65;5.95;;;;;;;;;;4996819;28;20034;-94
2023/11/17 12:57:48;;;;;;;6.50;5.15;;;;;;;;;;4997488;28;20030;-93
2023/11/17 13:00:28;;;;;;;5.28;4.38;;;;;;;;;;5013737;28;20026;-94
2023/11/17 13:02:56;;;;;;;4.93;4.30;;;;;;;;;;4996569;28;20486;-92
2023/11/17 13:05:24;;;;;;;4.57;4.18;;;;;;;;;;4996424;28;20062;-93
2023/11/17 13:07:52;;;;;;;5.10;4.35;;;;;;;;;;4996891;28;20068;-94
2023/11/17 13:10:17;;;;;;;4.47;4.07;;;;;;;;;;5012433;28;20030;-93
2023/11/17 13:12:45;;;;;;;5.15;4.65;;;;;;;;;;5012109;28;20488;-93
2023/11/17 13:15:15;;;;;;;8.05;5.88;;;;;;;;;;4996983;28;20080;-93
2023/11/17 13:17:44;;;;;;;5.50;5.00;;;;;;;;;;4996377;28;20034;-94
2023/11/17 13:20:23;;;;;;;4.97;4.50;;;;;;;;;;4980419;28;20022;-92
2023/11/17 13:22:51;;;;;;;6.93;5.40;;;;;;;;;;4996993;28;20069;-94
2023/11/17 13:25:20;;;;;;;4.72;4.30;;;;;;;;;;4996070;28;20042;-91
2023/11/17 13:28:10;;;;;;;7.22;5.93;;;;;;;;;;4996917;28;20060;-93
2023/11/17 13:30:40;;;;;;;5.35;4.72;;;;;;;;;;5013888;28;20030;-94
2023/11/17 13:33:19;;;;;;;4.57;3.88;;;;;;;;;;4996120;28;20045;-94
2023/11/17 13:35:45;;;;;;;7.25;5.57;;;;;;;;;;5011702;28;20026;-94
2023/11/17 13:38:16;;;;;;;5.80;5.18;;;;;;;;;;5000204;28;20045;-93
2023/11/17 13:40:44;;;;;;;5.57;4.15;;;;;;;;;;5026970;28;20119;-93
2023/11/17 13:43:17;;;;;;;5.90;5.10;;;;;;;;;;5016510;28;20112;-94
2023/11/17 13:45:43;;;;;;;5.15;4.68;;;;;;;;;;5002015;28;20037;-94
2023/11/17 13:54:31;;;;;;;5.10;3.80;;;;;;;;;;4992651;28;20054;-70
2023/11/17 13:56:57;;;;;;;5.32;3.85;;;;;;;;;;4996664;28;20061;-63
2023/11/17 13:59:26;;;;;;;3.88;3.50;;;;;;;;;;4996828;28;20074;-64
2023/11/17 14:01:56;;;;;;;4.93;4.43;;;;;;;;;;4996728;28;20030;-63
2023/11/17 14:04:31;;;;;;;6.70;4.93;;;;;;;;;;4979136;28;20544;-63
2023/11/17 14:06:57;;;;;;;6.28;5.57;;;;;;;;;;4996706;28;20061;-63
2023/11/17 14:09:24;;;;;;;6.03;4.32;;;;;;;;;;4979487;28;20446;-63
2023/11/17 14:11:50;;;;;;;4.97;4.53;;;;;;;;;;4996706;28;20088;-63
2023/11/17 14:14:15;;;;;;;5.70;4.93;;;;;;;;;;4995243;28;20462;-63
2023/11/17 14:16:50;;;;;;;5.82;5.28;;;;;;;;;;4996410;28;20080;-63
2023/11/17 14:19:15;;;;;;;5.45;4.68;;;;;;;;;;5010211;28;20038;-63
2023/11/17 14:21:44;;;;;;;4.90;3.80;;;;;;;;;;4993491;28;20034;-63
2023/11/17 14:24:10;;;;;;;4.97;4.13;;;;;;;;;;4993440;28;20093;-63
2023/11/17 14:26:35;;;;;;;4.88;4.38;;;;;;;;;;4994518;28;20018;-63
2023/11/17 14:29:01;;;;;;;3.58;3.28;;;;;;;;;;4994703;28;20018;-63
2023/11/17 14:31:27;;;;;;;4.68;4.20;;;;;;;;;;4978054;28;20371;-63
2023/11/17 14:33:53;;;;;;;8.27;6.40;;;;;;;;;;4995977;28;20018;-63
2023/11/17 14:36:18;;;;;;;14.20;9.23;;;;;;;;;;4994030;28;20049;-63
2023/11/17 14:38:44;;;;;;;20.23;13.73;;;;;;;;;;4996165;28;20033;-63
2023/11/17 14:41:09;;;;;;;21.15;14.90;;;;;;;;;;4978334;28;20018;-66
2023/11/17 14:43:35;;;;;;;15.95;12.02;;;;;;;;;;4995847;28;20085;-66
2023/11/17 14:46:01;;;;;;;12.80;9.32;;;;;;;;;;5011086;28;20370;-65
2023/11/17 14:48:26;;;;;;;15.80;9.45;;;;;;;;;;4995067;28;20018;-66
2023/11/17 14:50:51;;;;;;;30.20;19.08;;;;;;;;;;4995568;28;20422;-63
2023/11/17 14:53:17;;;;;;;7.70;5.63;;;;;;;;;;5010658;28;20089;-63
2023/11/17 14:55:42;;;;;;;16.13;10.30;;;;;;;;;;5010646;28;20125;-63
2023/11/17 14:58:08;;;;;;;10.65;8.95;;;;;;;;;;4994943;28;20070;-63
2023/11/17 15:00:41;;;;;;;7.45;5.18;;;;;;;;;;4994705;28;20050;-63
2023/11/17 15:03:10;;;;;;;3.83;3.53;;;;;;;;;;4994555;28;20070;-63
2023/11/17 15:05:38;;;;;;;5.85;3.95;;;;;;;;;;4994801;28;20026;-63